Time;durP1;ratioP1;P1;durP2;ratioP2;P2;SDS_P1;SDS_P2;PMS_P1;PMS_P2;Temp;Humidity;BMP_temperature;BMP_pressure;BME280_temperature;BME280_humidity;BME280_pressure;Samples;Min_cycle;Max_cycle;Signal;HPM_P1;HPM_P2
2022/02/25 00:00:23;;;;;;;3.30;0.95;;;;;;;1.28;100.00;96071.03;5010620;28;24839;-74
2022/02/25 00:02:49;;;;;;;3.92;1.20;;;;;;;1.21;100.00;96081.38;5010998;28;24424;-74
2022/02/25 00:05:17;;;;;;;2.70;0.90;;;;;;;1.14;100.00;96077.25;5010558;28;24951;-75
2022/02/25 00:07:44;;;;;;;4.10;1.17;;;;;;;1.15;100.00;96084.06;5010256;28;24950;-75
2022/02/25 00:10:11;;;;;;;2.63;0.90;;;;;;;1.15;100.00;96084.06;5011121;28;24555;-75
2022/02/25 00:12:38;;;;;;;4.60;1.30;;;;;;;1.16;100.00;96084.91;5010779;28;24512;-74
2022/02/25 00:15:06;;;;;;;3.17;1.17;;;;;;;1.07;100.00;96091.00;5010078;28;24502;-74
2022/02/25 00:17:33;;;;;;;5.15;1.35;;;;;;;1.08;100.00;96089.31;5027020;28;24440;-75
2022/02/25 00:19:59;;;;;;;3.17;1.15;;;;;;;1.01;100.00;96101.34;5030249;28;24993;-75
2022/02/25 00:22:27;;;;;;;2.58;0.95;;;;;;;0.98;100.00;96101.41;5030476;28;24458;-74
2022/02/25 00:24:53;;;;;;;6.00;1.17;;;;;;;0.90;100.00;96105.84;5030286;28;24832;-74
2022/02/25 00:27:20;;;;;;;2.92;1.10;;;;;;;0.92;100.00;96111.72;5029753;28;24436;-74
2022/02/25 00:29:46;;;;;;;3.42;0.90;;;;;;;0.89;100.00;96119.44;5030522;28;24530;-75
2022/02/25 00:32:13;;;;;;;3.30;0.98;;;;;;;0.87;100.00;96129.66;5030260;28;24435;-75
2022/02/25 00:34:39;;;;;;;3.05;1.25;;;;;;;0.86;100.00;96129.72;5029139;28;24456;-74
2022/02/25 00:37:06;;;;;;;2.40;0.97;;;;;;;0.76;100.00;96123.09;5031044;28;25057;-74
2022/02/25 00:39:33;;;;;;;4.57;0.88;;;;;;;0.77;100.00;96115.41;5033873;28;24995;-74
2022/02/25 00:42:00;;;;;;;3.83;1.10;;;;;;;0.67;100.00;96132.59;5033723;28;24498;-75
2022/02/25 00:44:26;;;;;;;3.13;1.20;;;;;;;0.72;100.00;96142.72;5033788;28;25038;-74
2022/02/25 00:46:53;;;;;;;4.55;0.90;;;;;;;0.62;100.00;96136.94;5033624;28;24486;-74
2022/02/25 00:49:19;;;;;;;4.28;1.25;;;;;;;0.64;100.00;96136.91;5033690;28;24968;-75
2022/02/25 00:51:46;;;;;;;3.30;0.93;;;;;;;0.58;100.00;96140.41;5033915;28;24511;-74
2022/02/25 00:54:12;;;;;;;4.13;1.50;;;;;;;0.64;100.00;96142.84;5033492;28;24798;-74
2022/02/25 00:56:40;;;;;;;2.25;0.90;;;;;;;0.53;100.00;96141.38;5033224;28;24443;-74
2022/02/25 00:59:07;;;;;;;2.70;1.10;;;;;;;0.53;100.00;96152.41;5033700;28;24415;-75
2022/02/25 01:01:33;;;;;;;4.25;1.30;;;;;;;0.51;100.00;96168.56;5033509;28;24427;-74
2022/02/25 01:04:00;;;;;;;4.77;1.30;;;;;;;0.49;100.00;96176.25;5033795;28;24419;-74
2022/02/25 01:06:26;;;;;;;3.53;1.10;;;;;;;0.50;100.00;96177.94;5033413;28;24868;-74
2022/02/25 01:08:52;;;;;;;4.18;1.05;;;;;;;0.51;100.00;96178.75;5033243;28;24972;-74
2022/02/25 01:11:19;;;;;;;5.45;1.20;;;;;;;0.54;100.00;96187.19;5033534;28;24428;-74
2022/02/25 01:13:47;;;;;;;2.53;0.90;;;;;;;0.63;100.00;96194.72;5033358;28;25029;-74
2022/02/25 01:16:14;;;;;;;3.13;1.13;;;;;;;0.57;100.00;96197.34;5033173;28;24816;-74
2022/02/25 01:18:41;;;;;;;3.28;1.02;;;;;;;0.45;100.00;96202.66;5033161;28;24503;-75
2022/02/25 01:21:07;;;;;;;3.40;0.90;;;;;;;0.46;100.00;96217.06;5033267;28;24415;-74
2022/02/25 01:23:34;;;;;;;10.82;1.58;;;;;;;0.57;100.00;96215.19;5033492;28;24424;-74
2022/02/25 01:26:01;;;;;;;3.40;0.90;;;;;;;0.49;100.00;96227.22;5032977;28;24419;-74
2022/02/25 01:28:28;;;;;;;3.13;1.08;;;;;;;0.54;100.00;96212.69;5033027;28;24510;-74
2022/02/25 01:30:55;;;;;;;3.03;0.90;;;;;;;0.53;100.00;96223.75;5033155;28;24420;-75
2022/02/25 01:33:22;;;;;;;4.82;1.10;;;;;;;0.41;100.00;96224.81;5033076;28;24465;-74
2022/02/25 01:35:51;;;;;;;6.75;1.48;;;;;;;0.36;100.00;96231.66;5032839;28;24448;-74
2022/02/25 01:38:17;;;;;;;5.05;1.13;;;;;;;0.33;100.00;96239.34;5032942;28;24432;-74
2022/02/25 01:40:44;;;;;;;2.67;1.10;;;;;;;0.39;100.00;96239.25;5033065;28;24420;-75
2022/02/25 01:43:10;;;;;;;4.40;1.35;;;;;;;0.21;100.00;96235.28;5032907;28;24427;-74
2022/02/25 01:45:37;;;;;;;3.17;1.15;;;;;;;0.31;100.00;96233.44;5032812;28;24424;-74
2022/02/25 01:48:06;;;;;;;4.88;1.67;;;;;;;0.26;100.00;96236.91;5031655;28;24462;-74
2022/02/25 01:50:32;;;;;;;16.60;1.50;;;;;;;0.26;100.00;96245.41;5032396;28;24427;-74
2022/02/25 01:53:02;;;;;;;3.30;1.02;;;;;;;0.29;100.00;96252.16;5032674;28;24473;-75
2022/02/25 01:55:30;;;;;;;4.20;1.20;;;;;;;0.21;100.00;96249.72;5032539;28;24481;-74
2022/02/25 01:57:56;;;;;;;6.57;1.33;;;;;;;0.22;100.00;96244.63;5032489;28;24423;-74
2022/02/25 02:00:23;;;;;;;3.43;1.20;;;;;;;0.20;100.00;96243.78;5032436;28;24833;-74
2022/02/25 02:02:49;;;;;;;2.50;1.10;;;;;;;0.28;100.00;96242.84;5032470;28;24420;-74
2022/02/25 02:05:17;;;;;;;3.53;1.10;;;;;;;0.69;100.00;96258.31;5032247;28;24431;-74
2022/02/25 02:07:44;;;;;;;3.13;1.25;;;;;;;0.77;100.00;96257.34;5032061;28;24821;-75
2022/02/25 02:10:11;;;;;;;3.72;1.05;;;;;;;0.93;100.00;96251.13;5032542;28;24431;-74
2022/02/25 02:12:37;;;;;;;3.13;1.10;;;;;;;0.92;100.00;96252.81;5032645;28;24432;-75
2022/02/25 02:15:05;;;;;;;4.37;1.47;;;;;;;0.90;100.00;96264.78;5032189;28;24443;-74
2022/02/25 02:17:32;;;;;;;5.63;0.90;;;;;;;0.97;100.00;96252.78;5032154;28;24428;-74
2022/02/25 02:20:00;;;;;;;6.55;1.45;;;;;;;1.10;100.00;96261.88;5031724;28;24494;-74
2022/02/25 02:22:29;;;;;;;4.60;1.25;;;;;;;1.12;100.00;96270.34;5032052;28;24953;-74
2022/02/25 02:24:56;;;;;;;3.20;1.10;;;;;;;1.21;100.00;96267.63;5032222;28;24511;-74
2022/02/25 02:27:23;;;;;;;4.50;1.20;;;;;;;1.59;100.00;96267.75;5031638;28;24977;-74
2022/02/25 02:29:49;;;;;;;3.23;1.30;;;;;;;1.54;100.00;96267.84;5032029;28;24976;-74
2022/02/25 02:32:16;;;;;;;5.13;1.80;;;;;;;1.46;100.00;96256.97;5032071;28;24820;-74
2022/02/25 02:34:42;;;;;;;3.15;1.20;;;;;;;1.43;100.00;96260.41;5032059;28;24431;-74
2022/02/25 02:37:10;;;;;;;4.53;1.38;;;;;;;1.63;100.00;96252.38;5031706;28;24431;-74
2022/02/25 02:39:38;;;;;;;4.20;1.40;;;;;;;1.42;100.00;96257.91;5031880;28;24416;-74
2022/02/25 02:42:05;;;;;;;4.00;1.20;;;;;;;1.17;100.00;96262.59;5031666;28;24999;-74
2022/02/25 02:44:32;;;;;;;3.72;1.17;;;;;;;1.14;100.00;96265.22;5031740;28;24450;-75
2022/02/25 02:46:58;;;;;;;9.20;1.42;;;;;;;1.16;100.00;96266.88;5031129;28;24482;-74
2022/02/25 02:49:25;;;;;;;6.50;1.55;;;;;;;1.19;100.00;96268.53;5031792;28;24426;-74
2022/02/25 02:51:51;;;;;;;10.77;1.48;;;;;;;1.29;100.00;96267.47;5031639;28;24474;-74
2022/02/25 02:54:18;;;;;;;7.03;2.03;;;;;;;1.23;100.00;96264.22;5031619;28;24774;-74
2022/02/25 02:56:46;;;;;;;5.03;1.70;;;;;;;1.29;100.00;96266.63;5031375;28;24474;-74
2022/02/25 02:59:12;;;;;;;8.50;1.60;;;;;;;1.15;100.00;96266.88;5031119;28;24481;-74
2022/02/25 03:01:38;;;;;;;4.30;1.42;;;;;;;1.20;100.00;96277.88;5031172;28;24999;-74
2022/02/25 03:04:05;;;;;;;8.15;1.73;;;;;;;1.18;100.00;96270.22;5031518;28;24415;-74
2022/02/25 03:06:31;;;;;;;4.68;1.83;;;;;;;1.05;100.00;96267.94;5031346;28;24485;-74
2022/02/25 03:08:59;;;;;;;4.32;1.52;;;;;;;1.16;100.00;96266.88;5031158;28;24427;-74
2022/02/25 03:11:25;;;;;;;5.97;1.90;;;;;;;0.97;100.00;96273.16;5031267;28;24416;-74
2022/02/25 03:13:53;;;;;;;6.05;1.20;;;;;;;1.11;100.00;96272.91;5031389;28;24428;-74
2022/02/25 03:16:20;;;;;;;8.40;1.80;;;;;;;1.04;100.00;96271.34;5030979;28;24455;-74
2022/02/25 03:18:46;;;;;;;6.82;1.70;;;;;;;1.00;100.00;96278.19;5031033;28;24435;-74
2022/02/25 03:21:13;;;;;;;6.07;1.63;;;;;;;1.05;100.00;96276.41;5031268;28;24420;-74
2022/02/25 03:23:40;;;;;;;6.43;1.70;;;;;;;1.02;100.00;96273.09;5031055;28;24454;-74
2022/02/25 03:26:07;;;;;;;6.28;1.75;;;;;;;1.00;100.00;96280.75;5030573;28;24813;-74
2022/02/25 03:28:33;;;;;;;5.85;2.10;;;;;;;0.89;100.00;96280.09;5030832;28;24419;-74
2022/02/25 03:31:01;;;;;;;4.77;1.50;;;;;;;0.93;100.00;96282.59;5031033;28;24424;-74
2022/02/25 03:33:28;;;;;;;6.70;1.80;;;;;;;0.96;100.00;96299.53;5030883;28;24477;-74
2022/02/25 03:35:54;;;;;;;6.40;1.70;;;;;;;0.91;100.00;96293.66;5030820;28;24918;-74
2022/02/25 03:38:22;;;;;;;5.18;1.75;;;;;;;0.99;100.00;96289.28;5030575;28;24450;-74
2022/02/25 03:40:50;;;;;;;8.95;2.35;;;;;;;0.98;100.00;96296.97;5030698;28;24522;-74
2022/02/25 03:43:16;;;;;;;4.95;1.73;;;;;;;1.05;100.00;96301.09;5030681;28;24450;-74
2022/02/25 03:45:43;;;;;;;10.00;1.88;;;;;;;1.07;100.00;96307.84;5030561;28;24424;-74
2022/02/25 03:48:11;;;;;;;5.13;1.90;;;;;;;0.95;100.00;96308.03;5030286;28;24450;-74
2022/02/25 03:50:38;;;;;;;4.75;1.65;;;;;;;0.94;100.00;96317.41;5030792;28;24428;-74
2022/02/25 03:53:04;;;;;;;10.13;2.40;;;;;;;1.01;100.00;96310.50;5030845;28;24470;-74
2022/02/25 03:55:30;;;;;;;4.55;1.48;;;;;;;1.03;100.00;96313.84;5030377;28;24452;-74
2022/02/25 03:57:57;;;;;;;6.88;1.80;;;;;;;1.09;100.00;96313.75;5030505;28;24444;-74
2022/02/25 04:00:24;;;;;;;5.70;1.70;;;;;;;1.08;100.00;96309.53;5030466;28;24979;-74
2022/02/25 04:02:50;;;;;;;5.63;1.67;;;;;;;1.04;100.00;96313.00;5030522;28;24431;-75
2022/02/25 04:05:18;;;;;;;7.95;2.40;;;;;;;0.97;100.00;96316.53;5030655;28;24516;-75
2022/02/25 04:07:46;;;;;;;5.87;1.87;;;;;;;1.07;100.00;96312.94;5030228;28;24420;-74
2022/02/25 04:10:13;;;;;;;7.85;1.83;;;;;;;1.15;100.00;96316.22;5030415;28;24971;-74
2022/02/25 04:12:39;;;;;;;15.55;2.08;;;;;;;1.15;100.00;96306.00;5032627;28;24462;-75
2022/02/25 04:15:07;;;;;;;8.20;2.47;;;;;;;1.12;100.00;96308.63;5034715;28;24420;-74
2022/02/25 04:17:34;;;;;;;8.02;2.17;;;;;;;0.99;100.00;96313.94;5034187;28;24448;-75
2022/02/25 04:20:01;;;;;;;11.30;3.40;;;;;;;0.99;100.00;96317.31;5034392;28;24477;-75
2022/02/25 04:22:28;;;;;;;43.63;23.17;;;;;;;1.03;100.00;96311.31;5034447;28;24412;-74
2022/02/25 04:24:55;;;;;;;31.77;18.70;;;;;;;0.98;100.00;96325.00;5034226;28;24416;-74
2022/02/25 04:27:22;;;;;;;65.38;39.78;;;;;;;0.83;100.00;96331.19;5034243;28;25089;-74
2022/02/25 04:29:48;;;;;;;13.98;6.40;;;;;;;0.80;100.00;96329.53;5034493;28;24514;-74
2022/02/25 04:32:15;;;;;;;11.93;2.80;;;;;;;0.72;100.00;96332.19;5034050;28;24455;-74
2022/02/25 04:34:41;;;;;;;12.40;4.38;;;;;;;0.62;100.00;96335.75;5034196;28;24421;-74
2022/02/25 04:37:08;;;;;;;7.80;2.00;;;;;;;0.71;100.00;96340.72;5033716;28;24459;-74
2022/02/25 04:39:36;;;;;;;9.05;2.53;;;;;;;0.72;100.00;96342.41;5033827;28;24420;-74
2022/02/25 04:42:03;;;;;;;7.93;2.20;;;;;;;0.65;100.00;96334.88;5034109;28;24474;-74
2022/02/25 04:44:29;;;;;;;9.02;2.40;;;;;;;0.65;100.00;96339.97;5034055;28;24485;-74
2022/02/25 04:46:56;;;;;;;7.25;2.20;;;;;;;0.77;100.00;96339.78;5033324;28;25004;-75
2022/02/25 04:49:22;;;;;;;6.50;2.20;;;;;;;0.77;100.00;96344.88;5033189;28;24471;-74
2022/02/25 04:51:49;;;;;;;7.13;2.10;;;;;;;0.77;100.00;96342.31;5033300;28;24432;-74
2022/02/25 04:54:15;;;;;;;16.80;2.35;;;;;;;0.77;100.00;96344.88;5033159;28;24502;-74
2022/02/25 04:56:43;;;;;;;7.78;1.90;;;;;;;0.79;100.00;96347.41;5033286;28;24518;-74
2022/02/25 04:59:10;;;;;;;9.18;2.13;;;;;;;0.72;100.00;96349.22;5033657;28;24443;-74
2022/02/25 05:01:36;;;;;;;7.13;2.23;;;;;;;0.74;100.00;96347.47;5033512;28;24424;-74
2022/02/25 05:04:03;;;;;;;10.13;2.50;;;;;;;0.76;100.00;96355.09;5033328;28;24427;-74
2022/02/25 05:06:29;;;;;;;5.68;1.95;;;;;;;0.73;100.00;96353.44;5032801;28;24996;-74
2022/02/25 05:08:56;;;;;;;10.48;3.38;;;;;;;0.79;100.00;96347.41;5033275;28;24482;-74
2022/02/25 05:11:23;;;;;;;8.45;2.53;;;;;;;0.73;100.00;96356.00;5033484;28;24434;-75
2022/02/25 05:13:50;;;;;;;4.82;2.00;;;;;;;0.71;100.00;96356.03;5033538;28;24420;-74
2022/02/25 05:21:45;;;;;;;8.27;2.17;;;;;;;0.70;100.00;96351.78;5033421;28;24419;-74
2022/02/25 05:24:11;;;;;;;6.93;3.00;;;;;;;0.77;100.00;96361.88;5033140;28;24431;-74
2022/02/25 05:26:38;;;;;;;9.38;2.47;;;;;;;0.75;100.00;96361.91;5033054;28;24436;-74
2022/02/25 05:29:06;;;;;;;9.10;2.38;;;;;;;0.75;100.00;96359.38;5032933;28;24415;-74
2022/02/25 05:31:33;;;;;;;9.57;2.53;;;;;;;0.62;100.00;96375.69;5033200;28;24470;-74
2022/02/25 05:33:59;;;;;;;8.05;2.10;;;;;;;0.52;100.00;96381.78;5033174;28;24825;-75
2022/02/25 05:36:26;;;;;;;14.63;2.58;;;;;;;0.39;100.00;96381.94;5033132;28;24842;-75
2022/02/25 05:38:55;;;;;;;7.60;2.53;;;;;;;0.39;100.00;96386.22;5033044;28;24498;-74
2022/02/25 05:41:22;;;;;;;7.13;2.80;;;;;;;0.45;100.00;96396.34;5032961;28;24424;-74
2022/02/25 05:43:48;;;;;;;8.20;2.63;;;;;;;0.37;100.00;96393.00;5045725;28;24809;-74
2022/02/25 05:46:16;;;;;;;8.02;2.30;;;;;;;0.39;100.00;96399.78;5033976;28;24452;-74
2022/02/25 05:48:43;;;;;;;9.40;2.72;;;;;;;0.57;100.00;96402.97;5032069;28;25074;-73
2022/02/25 05:51:09;;;;;;;8.77;2.33;;;;;;;0.53;100.00;96403.88;5032696;28;24419;-72
2022/02/25 05:53:35;;;;;;;6.60;2.17;;;;;;;0.48;100.00;96406.47;5032427;28;24423;-74
2022/02/25 05:56:02;;;;;;;9.38;2.55;;;;;;;0.42;100.00;96406.56;5032459;28;24420;-74
2022/02/25 05:58:28;;;;;;;6.07;2.40;;;;;;;0.39;100.00;96416.78;5032110;28;24583;-74
2022/02/25 06:00:55;;;;;;;5.67;2.20;;;;;;;0.44;100.00;96412.47;5032393;28;24436;-75
2022/02/25 06:03:23;;;;;;;9.77;2.10;;;;;;;0.40;100.00;96426.09;5032717;28;24503;-74
2022/02/25 06:05:49;;;;;;;6.30;1.90;;;;;;;0.35;100.00;96422.78;5032502;28;24841;-75
2022/02/25 06:08:16;;;;;;;5.88;1.83;;;;;;;0.24;100.00;96431.38;5031779;28;24937;-74
2022/02/25 06:10:42;;;;;;;8.65;2.20;;;;;;;0.20;100.00;96428.91;5031732;28;24428;-74
2022/02/25 06:13:09;;;;;;;8.65;2.50;;;;;;;0.30;100.00;96440.69;5032005;28;24434;-74
2022/02/25 06:15:35;;;;;;;7.00;2.10;;;;;;;0.26;100.00;96436.50;5031640;28;24521;-74
2022/02/25 06:18:01;;;;;;;7.00;2.45;;;;;;;0.24;100.00;96435.66;5023705;28;24468;-73
2022/02/25 06:20:29;;;;;;;5.93;2.13;;;;;;;0.20;100.00;96445.03;5032203;28;24435;-73
2022/02/25 06:22:56;;;;;;;5.28;2.03;;;;;;;0.16;100.00;96435.75;5031951;28;24431;-73
2022/02/25 06:25:22;;;;;;;12.02;2.50;;;;;;;0.06;100.00;96446.03;5031040;28;24526;-73
2022/02/25 06:27:49;;;;;;;7.00;2.42;;;;;;;0.02;100.00;96444.41;5031259;28;24991;-75
2022/02/25 06:30:16;;;;;;;11.40;2.80;;;;;;;0.11;100.00;96445.16;5032492;28;24436;-75
2022/02/25 06:32:44;;;;;;;5.97;2.35;;;;;;;0.11;100.00;96446.81;5036691;28;24443;-74
2022/02/25 06:35:11;;;;;;;11.82;3.75;;;;;;;0.04;100.00;96448.63;5031502;28;24420;-74
2022/02/25 06:37:39;;;;;;;5.30;2.03;;;;;;;0.06;100.00;96448.59;5032001;28;24463;-75
2022/02/25 06:40:08;;;;;;;6.90;2.05;;;;;;;0.16;100.00;96445.94;5032424;28;24463;-74
2022/02/25 06:42:34;;;;;;;8.55;2.90;;;;;;;0.23;100.00;96452.66;5031740;28;24428;-74
2022/02/25 06:45:00;;;;;;;9.27;2.60;;;;;;;0.16;100.00;96455.28;5032055;28;24423;-74
2022/02/25 06:47:27;;;;;;;7.90;2.40;;;;;;;0.24;100.00;96467.06;5031697;28;24428;-75
2022/02/25 06:49:54;;;;;;;6.47;2.30;;;;;;;0.30;100.00;96470.38;5032029;28;24416;-75
2022/02/25 06:52:20;;;;;;;10.23;2.65;;;;;;;0.42;100.00;96468.56;5032117;28;24434;-75
2022/02/25 06:54:48;;;;;;;11.60;3.53;;;;;;;0.51;100.00;96471.84;5032108;28;24422;-75
2022/02/25 06:57:14;;;;;;;8.55;3.58;;;;;;;0.60;100.00;96472.59;5031298;28;24455;-75
2022/02/25 06:59:41;;;;;;;15.87;7.80;;;;;;;0.64;100.00;96473.41;5032651;28;24522;-75
2022/02/25 07:02:08;;;;;;;13.63;5.38;;;;;;;0.69;100.00;96471.63;5031627;28;24411;-75
2022/02/25 07:04:35;;;;;;;8.43;3.80;;;;;;;0.79;100.00;96482.56;5031330;28;24412;-77
2022/02/25 07:07:01;;;;;;;12.48;2.92;;;;;;;0.94;100.00;96474.69;5030848;28;24428;-76
2022/02/25 07:09:27;;;;;;;8.48;2.55;;;;;;;1.10;100.00;96478.72;5031255;28;24424;-77
2022/02/25 07:11:55;;;;;;;6.82;2.35;;;;;;;1.19;100.00;96476.03;5028818;28;25098;-77
2022/02/25 07:14:22;;;;;;;7.93;2.42;;;;;;;1.20;100.00;96481.97;5030914;28;24823;-77
2022/02/25 07:16:48;;;;;;;4.55;1.75;;;;;;;1.07;100.00;96483.84;5031563;28;24459;-75
2022/02/25 07:19:15;;;;;;;10.70;2.50;;;;;;;1.03;100.00;96492.41;5024762;28;24439;-76
2022/02/25 07:21:41;;;;;;;15.97;2.33;;;;;;;1.25;100.00;96495.50;5011252;28;25044;-76
2022/02/25 07:24:08;;;;;;;8.13;2.25;;;;;;;1.43;100.00;96490.13;5010874;28;24421;-76
2022/02/25 07:26:34;;;;;;;8.63;2.05;;;;;;;1.47;100.00;96498.56;5024934;28;24439;-76
2022/02/25 07:29:03;;;;;;;7.88;2.22;;;;;;;1.28;100.00;96490.34;5027112;28;24984;-77
2022/02/25 07:31:32;;;;;;;6.32;2.03;;;;;;;1.41;100.00;96488.47;5011917;28;24483;-77
2022/02/25 07:33:59;;;;;;;10.07;2.55;;;;;;;1.47;100.00;96490.09;5029968;28;24432;-76
2022/02/25 07:36:25;;;;;;;11.82;2.80;;;;;;;1.43;100.00;96502.88;5031219;28;24531;-76
2022/02/25 07:38:52;;;;;;;10.00;2.73;;;;;;;1.25;100.00;96507.41;5030583;28;24522;-75
2022/02/25 07:41:19;;;;;;;11.52;2.58;;;;;;;1.40;100.00;96510.59;5040775;28;24428;-75
2022/02/25 07:43:45;;;;;;;6.72;2.10;;;;;;;1.60;100.00;96517.13;5032381;28;24442;-75
2022/02/25 07:46:13;;;;;;;9.10;2.30;;;;;;;1.85;100.00;96515.00;5030651;28;24917;-76
2022/02/25 07:48:39;;;;;;;20.73;2.75;;;;;;;1.92;100.00;96508.91;5035319;28;24428;-75
2022/02/25 07:51:07;;;;;;;7.28;2.25;;;;;;;1.71;100.00;96510.13;5014891;28;24455;-76
2022/02/25 07:53:34;;;;;;;12.02;2.90;;;;;;;1.51;100.00;96515.53;5011526;28;24456;-76
2022/02/25 07:56:01;;;;;;;10.32;2.40;;;;;;;1.96;100.00;96513.09;5010957;28;24475;-76
2022/02/25 07:58:28;;;;;;;9.60;2.42;;;;;;;2.02;100.00;96519.81;5020180;28;24456;-76
2022/02/25 08:00:54;;;;;;;9.65;2.50;;;;;;;2.14;100.00;96515.31;5031263;28;24416;-75
2022/02/25 08:03:25;;;;;;;10.18;2.60;;;;;;;2.20;100.00;96526.34;5016979;28;24439;-76
2022/02/25 08:05:51;;;;;;;9.50;2.22;;;;;;;2.54;100.00;96526.53;5010975;28;24615;-76
2022/02/25 08:08:18;;;;;;;11.75;3.25;;;;;;;2.65;100.00;96529.72;5018741;28;24420;-75
2022/02/25 08:10:46;;;;;;;6.65;2.17;;;;;;;2.74;98.36;96531.25;5021644;28;24627;-76
2022/02/25 08:13:14;;;;;;;8.40;2.22;;;;;;;2.48;99.69;96535.16;5033409;28;24468;-76
2022/02/25 08:15:42;;;;;;;12.43;2.47;;;;;;;2.50;98.99;96530.03;5030888;28;24432;-76
2022/02/25 08:18:09;;;;;;;6.57;2.17;;;;;;;2.36;98.99;96543.06;5029527;28;24993;-75
2022/02/25 08:20:38;;;;;;;8.25;2.58;;;;;;;2.25;99.66;96543.25;5030874;28;24442;-76
2022/02/25 08:23:06;;;;;;;8.07;2.60;;;;;;;2.14;100.00;96535.78;5031094;28;24420;-76
2022/02/25 08:25:33;;;;;;;8.05;2.50;;;;;;;2.13;100.00;96534.09;5030750;28;24562;-76
2022/02/25 08:28:00;;;;;;;6.80;2.25;;;;;;;2.73;99.80;96534.69;5029917;28;25056;-76
2022/02/25 08:30:29;;;;;;;9.10;2.28;;;;;;;3.06;94.13;96541.69;5029733;28;24485;-76
2022/02/25 08:33:00;;;;;;;12.37;2.80;;;;;;;2.82;93.78;96537.09;5021185;28;24985;-77
2022/02/25 08:35:28;;;;;;;13.68;2.88;;;;;;;2.80;94.19;96533.72;5031139;28;24420;-75
2022/02/25 08:37:56;;;;;;;9.45;2.50;;;;;;;2.48;94.96;96537.72;5030071;28;24901;-74
2022/02/25 08:40:23;;;;;;;12.27;2.67;;;;;;;2.47;95.51;96530.94;5029639;28;24977;-75
2022/02/25 08:42:49;;;;;;;6.40;2.38;;;;;;;2.78;94.22;96531.19;5029963;28;24514;-75
2022/02/25 08:45:16;;;;;;;11.20;3.00;;;;;;;2.94;92.84;96533.44;5029945;28;25000;-74
2022/02/25 08:47:44;;;;;;;7.27;2.20;;;;;;;3.19;91.96;96534.59;5028452;28;24461;-75
2022/02/25 08:50:12;;;;;;;8.73;2.50;;;;;;;3.27;90.54;96527.59;5029819;28;24427;-75
2022/02/25 08:52:38;;;;;;;8.70;2.50;;;;;;;3.11;91.69;96529.63;5030072;28;24466;-75
2022/02/25 08:55:07;;;;;;;11.18;3.13;;;;;;;3.01;90.58;96530.72;5029939;28;24995;-75
2022/02/25 08:57:33;;;;;;;8.68;2.58;;;;;;;3.26;89.28;96531.00;5029441;28;24571;-75
2022/02/25 09:00:00;;;;;;;13.82;2.88;;;;;;;3.66;88.65;96532.69;5032085;28;24473;-75
2022/02/25 09:02:26;;;;;;;4.85;1.83;;;;;;;3.44;87.65;96524.66;5028030;28;24990;-76
2022/02/25 09:04:53;;;;;;;6.82;2.38;;;;;;;3.16;88.24;96529.56;5014312;28;24553;-76
2022/02/25 09:07:19;;;;;;;13.60;2.53;;;;;;;3.13;89.11;96530.44;5013804;28;24519;-77
2022/02/25 09:09:46;;;;;;;7.70;2.38;;;;;;;3.30;88.10;96531.78;5032510;28;24443;-76
2022/02/25 09:12:13;;;;;;;7.18;2.33;;;;;;;3.30;85.93;96536.91;5019450;28;24436;-76
2022/02/25 09:14:40;;;;;;;10.48;2.33;;;;;;;2.98;89.67;96541.00;5032898;28;24423;-76
2022/02/25 09:17:07;;;;;;;11.43;2.20;;;;;;;3.40;87.06;96528.16;5032652;28;24442;-74
2022/02/25 09:19:34;;;;;;;14.52;2.50;;;;;;;3.18;88.60;96540.59;5032868;28;24889;-75
2022/02/25 09:22:01;;;;;;;7.17;2.40;;;;;;;3.11;88.47;96536.47;5033207;28;24436;-74
2022/02/25 09:24:28;;;;;;;8.75;2.22;;;;;;;3.27;86.66;96540.41;5033216;28;24485;-75
2022/02/25 09:26:54;;;;;;;7.35;2.40;;;;;;;3.20;87.38;96548.25;5032609;28;24960;-74
2022/02/25 09:29:22;;;;;;;8.25;2.40;;;;;;;3.13;87.25;96542.41;5032300;28;24481;-75
2022/02/25 09:31:48;;;;;;;4.97;2.17;;;;;;;3.13;84.92;96543.25;5021738;28;24519;-75
2022/02/25 09:34:15;;;;;;;6.40;2.25;;;;;;;3.14;85.93;96544.09;5034300;28;24423;-74
2022/02/25 09:36:41;;;;;;;6.93;2.30;;;;;;;2.98;87.03;96541.00;5052711;28;25010;-75
2022/02/25 09:39:10;;;;;;;11.25;2.70;;;;;;;2.97;85.67;96541.06;5037006;28;24537;-74
2022/02/25 09:41:37;;;;;;;6.93;2.30;;;;;;;3.43;86.13;96547.75;5022474;28;24467;-74
2022/02/25 09:44:04;;;;;;;10.13;2.42;;;;;;;3.69;84.53;96542.03;5033225;28;24474;-74
2022/02/25 09:46:32;;;;;;;9.35;2.38;;;;;;;3.60;83.56;96541.38;5032621;28;24439;-75
2022/02/25 09:48:59;;;;;;;8.68;2.50;;;;;;;3.75;84.52;96544.44;5026692;28;24424;-75
2022/02/25 09:51:26;;;;;;;10.80;2.60;;;;;;;3.73;85.04;96551.31;5032599;28;24427;-75
2022/02/25 09:53:52;;;;;;;12.77;2.17;;;;;;;3.52;84.14;96553.50;5032617;28;24845;-76
2022/02/25 09:56:19;;;;;;;7.50;2.30;;;;;;;3.37;83.15;96547.00;5031950;28;24486;-75
2022/02/25 09:58:46;;;;;;;8.07;2.28;;;;;;;3.47;83.02;96557.03;5032129;28;24486;-76
2022/02/25 10:01:12;;;;;;;8.07;2.30;;;;;;;3.52;84.99;96555.19;5032666;28;24427;-75
2022/02/25 10:03:40;;;;;;;11.30;2.40;;;;;;;3.73;80.61;96557.28;5016458;28;24510;-76
2022/02/25 10:06:09;;;;;;;9.38;2.58;;;;;;;3.98;80.53;96549.84;5013286;28;24786;-76
2022/02/25 10:08:36;;;;;;;8.35;1.90;;;;;;;4.35;78.17;96562.59;5022965;28;24512;-75
2022/02/25 10:11:05;;;;;;;9.88;3.50;;;;;;;4.46;78.09;96552.06;5032064;28;24494;-75
2022/02/25 10:13:34;;;;;;;9.13;3.88;;;;;;;4.67;77.65;96566.03;5032542;28;24470;-76
2022/02/25 10:16:03;;;;;;;16.20;3.35;;;;;;;4.33;78.24;96569.47;5032695;28;24443;-76
2022/02/25 10:18:31;;;;;;;8.38;2.15;;;;;;;4.18;78.90;96558.78;5030812;28;24999;-76
2022/02/25 10:21:07;;;;;;;6.83;2.20;;;;;;;4.27;79.39;96561.97;5032391;28;24789;-75
2022/02/25 10:23:36;;;;;;;6.88;2.67;;;;;;;3.87;78.65;96564.66;5032211;28;24462;-75
2022/02/25 10:26:08;;;;;;;12.77;2.60;;;;;;;3.95;79.88;96549.94;5018197;28;24436;-75
2022/02/25 10:28:37;;;;;;;8.65;3.38;;;;;;;4.41;77.50;96561.59;5013996;28;24467;-75
2022/02/25 10:31:21;;;;;;;7.47;2.38;;;;;;;4.10;78.34;96557.25;5012350;28;24419;-75
2022/02/25 10:34:00;;;;;;;6.30;2.65;;;;;;;3.88;79.88;96558.63;5029361;28;24789;-74
2022/02/25 10:36:44;;;;;;;5.60;2.22;;;;;;;3.66;79.78;96560.84;5032731;28;24478;-74
2022/02/25 10:39:12;;;;;;;7.28;2.80;;;;;;;3.69;79.93;96562.50;5031447;28;24456;-75
2022/02/25 10:41:38;;;;;;;5.55;2.22;;;;;;;4.23;78.68;96562.09;5025548;28;24447;-73
2022/02/25 10:44:05;;;;;;;7.70;2.57;;;;;;;4.44;78.19;96561.50;5021826;28;24533;-76
2022/02/25 10:46:31;;;;;;;6.43;1.90;;;;;;;3.95;77.61;96567.88;5012023;28;24918;-75
2022/02/25 10:49:05;;;;;;;8.43;2.20;;;;;;;3.37;77.92;96556.38;5018156;28;24974;-75
2022/02/25 10:51:36;;;;;;;9.25;2.22;;;;;;;3.51;78.71;96566.34;5011971;28;24515;-75
2022/02/25 10:54:04;;;;;;;11.23;2.08;;;;;;;3.67;79.51;96562.56;5011640;28;24424;-75
2022/02/25 10:56:44;;;;;;;12.45;4.95;;;;;;;4.04;76.58;96552.28;5011120;28;24531;-75
2022/02/25 10:59:12;;;;;;;9.85;2.58;;;;;;;3.92;77.55;96552.56;5033335;23;24588;-73
2022/02/25 11:01:40;;;;;;;7.65;2.20;;;;;;;4.04;78.19;96556.53;4992407;28;24440;-73
2022/02/25 11:04:09;;;;;;;7.00;2.42;;;;;;;4.22;78.19;96560.38;4992353;28;24431;-73
2022/02/25 11:06:37;;;;;;;9.38;2.60;;;;;;;3.77;75.27;96552.94;4992360;28;24433;-73
2022/02/25 11:09:05;;;;;;;7.03;2.13;;;;;;;3.67;77.98;96556.56;4991490;28;24989;-73
2022/02/25 11:11:33;;;;;;;6.07;2.20;;;;;;;3.77;78.10;96563.19;4992120;28;24545;-73
2022/02/25 11:14:03;;;;;;;9.98;2.50;;;;;;;3.87;78.38;96554.41;4986764;28;24433;-73
2022/02/25 11:16:31;;;;;;;7.97;2.60;;;;;;;4.04;76.94;96552.28;4992125;28;24878;-73
2022/02/25 11:19:01;;;;;;;6.13;2.28;;;;;;;4.08;77.99;96558.19;4983243;28;24518;-73
2022/02/25 11:21:28;;;;;;;4.65;1.80;;;;;;;4.09;74.30;96555.56;4976258;28;25018;-73
2022/02/25 11:23:57;;;;;;;8.50;2.20;;;;;;;4.00;73.63;96555.78;4972508;28;24468;-73
2022/02/25 11:26:24;;;;;;;4.90;1.67;;;;;;;4.01;74.28;96556.66;4981561;28;24535;-73
2022/02/25 11:28:50;;;;;;;5.13;1.73;;;;;;;3.99;74.51;96551.53;4991685;28;24536;-73
2022/02/25 11:31:24;;;;;;;6.50;2.00;;;;;;;3.86;74.24;96562.97;4992296;28;25215;-73
2022/02/25 11:33:52;;;;;;;6.78;2.30;;;;;;;3.89;75.05;96550.06;4989461;28;24525;-73
2022/02/25 11:36:19;;;;;;;7.75;2.33;;;;;;;3.70;74.48;96547.09;4991816;28;24520;-73
2022/02/25 11:38:48;;;;;;;9.20;2.35;;;;;;;3.92;75.50;96552.56;4991411;28;24456;-73